McZena, Ohio
Current Conditions -  °F | °C
As of 2:52 AM on Monday 24 Nov 2014 (Local Time) from KMFD Reporting Station
Light Rain Light Rain  
Wind Chill: 56°   Ceiling: 1000
Heat Index: 56°   Visibility: 5mi
Dew Point: 55°   Wind: 22mph
Humidity: 97%   Direction: 180°S
Pressure: 29.24"   Gusts: 35mph
Location:  40.6482°N, 82.138°W
Report Text: KMFD 240752Z AUTO 18019G30KT 5SM -RA BR BKN010 BKN014 OVC022 13/13 A2924 RMK AO2 PK WND 18030/0748 SLP898 P0006 T01330128
Loading
Personal Weather Stations






























Interactive Weather Map New forecast layout! Learn more

10-Day Weather Forecast

Advertisements
Track Severe Weather on mobile